sensor_id;sensor_type;location;lat;lon;timestamp;temperature;humidity
44643;DHT22;33930;-34.276;150.954;2022-07-17T00:00:24;25.40;88.30
44643;DHT22;33930;-34.276;150.954;2022-07-17T00:02:52;25.70;88.30
44643;DHT22;33930;-34.276;150.954;2022-07-17T00:05:19;26.00;87.60
44643;DHT22;33930;-34.276;150.954;2022-07-17T00:07:47;26.20;86.30
44643;DHT22;33930;-34.276;150.954;2022-07-17T00:10:15;25.90;86.00
44643;DHT22;33930;-34.276;150.954;2022-07-17T00:12:43;26.00;86.40
44643;DHT22;33930;-34.276;150.954;2022-07-17T00:15:11;26.30;86.20
44643;DHT22;33930;-34.276;150.954;2022-07-17T00:17:39;26.40;86.00
44643;DHT22;33930;-34.276;150.954;2022-07-17T00:20:07;26.60;85.50
44643;DHT22;33930;-34.276;150.954;2022-07-17T00:22:35;26.70;83.70
44643;DHT22;33930;-34.276;150.954;2022-07-17T00:25:04;26.60;84.00
44643;DHT22;33930;-34.276;150.954;2022-07-17T00:27:32;26.70;84.30
44643;DHT22;33930;-34.276;150.954;2022-07-17T00:29:59;26.40;84.10
44643;DHT22;33930;-34.276;150.954;2022-07-17T00:32:27;26.00;81.00
44643;DHT22;33930;-34.276;150.954;2022-07-17T00:34:54;26.00;81.70
44643;DHT22;33930;-34.276;150.954;2022-07-17T00:37:22;26.10;81.90
44643;DHT22;33930;-34.276;150.954;2022-07-17T00:39:49;26.00;81.70
44643;DHT22;33930;-34.276;150.954;2022-07-17T00:42:17;25.80;79.90
44643;DHT22;33930;-34.276;150.954;2022-07-17T00:44:45;25.80;82.30
44643;DHT22;33930;-34.276;150.954;2022-07-17T00:47:18;25.60;82.10
44643;DHT22;33930;-34.276;150.954;2022-07-17T00:49:46;25.60;81.50
44643;DHT22;33930;-34.276;150.954;2022-07-17T00:52:15;25.30;82.60
44643;DHT22;33930;-34.276;150.954;2022-07-17T00:54:44;25.00;80.00
44643;DHT22;33930;-34.276;150.954;2022-07-17T00:57:14;24.70;80.10
44643;DHT22;33930;-34.276;150.954;2022-07-17T00:59:42;24.60;81.70
44643;DHT22;33930;-34.276;150.954;2022-07-17T01:02:12;24.20;81.80
44643;DHT22;33930;-34.276;150.954;2022-07-17T01:04:40;23.80;84.70
44643;DHT22;33930;-34.276;150.954;2022-07-17T01:07:08;23.50;83.70
44643;DHT22;33930;-34.276;150.954;2022-07-17T01:09:35;23.10;85.10
44643;DHT22;33930;-34.276;150.954;2022-07-17T01:12:03;22.60;84.40
44643;DHT22;33930;-34.276;150.954;2022-07-17T01:14:30;22.20;86.40
44643;DHT22;33930;-34.276;150.954;2022-07-17T01:16:59;21.90;85.30
44643;DHT22;33930;-34.276;150.954;2022-07-17T01:19:27;21.70;84.50
44643;DHT22;33930;-34.276;150.954;2022-07-17T01:21:54;21.50;86.70
44643;DHT22;33930;-34.276;150.954;2022-07-17T01:24:22;21.10;84.00
44643;DHT22;33930;-34.276;150.954;2022-07-17T01:26:50;21.00;83.70
44643;DHT22;33930;-34.276;150.954;2022-07-17T01:29:18;20.70;82.30
44643;DHT22;33930;-34.276;150.954;2022-07-17T01:31:45;20.60;83.00
44643;DHT22;33930;-34.276;150.954;2022-07-17T01:34:13;20.40;88.00
44643;DHT22;33930;-34.276;150.954;2022-07-17T01:36:41;20.40;85.30
44643;DHT22;33930;-34.276;150.954;2022-07-17T01:39:08;20.30;83.60
44643;DHT22;33930;-34.276;150.954;2022-07-17T01:41:36;20.40;85.30
44643;DHT22;33930;-34.276;150.954;2022-07-17T01:44:04;20.30;84.30
44643;DHT22;33930;-34.276;150.954;2022-07-17T01:46:33;20.30;81.40
44643;DHT22;33930;-34.276;150.954;2022-07-17T01:49:00;20.20;84.30
44643;DHT22;33930;-34.276;150.954;2022-07-17T01:51:28;20.10;83.40
44643;DHT22;33930;-34.276;150.954;2022-07-17T01:53:55;20.10;83.40
44643;DHT22;33930;-34.276;150.954;2022-07-17T01:56:23;20.10;82.70
44643;DHT22;33930;-34.276;150.954;2022-07-17T01:58:50;20.10;81.40
44643;DHT22;33930;-34.276;150.954;2022-07-17T02:01:17;20.00;82.40
44643;DHT22;33930;-34.276;150.954;2022-07-17T02:03:45;19.80;81.00
44643;DHT22;33930;-34.276;150.954;2022-07-17T02:06:12;19.90;81.50
44643;DHT22;33930;-34.276;150.954;2022-07-17T02:08:40;19.90;82.00
44643;DHT22;33930;-34.276;150.954;2022-07-17T02:11:07;19.90;82.20
44643;DHT22;33930;-34.276;150.954;2022-07-17T02:13:35;19.90;81.10
44643;DHT22;33930;-34.276;150.954;2022-07-17T02:16:02;19.90;82.30
44643;DHT22;33930;-34.276;150.954;2022-07-17T02:18:30;19.80;81.80
44643;DHT22;33930;-34.276;150.954;2022-07-17T02:20:57;19.80;81.30
44643;DHT22;33930;-34.276;150.954;2022-07-17T02:23:24;19.80;82.10
44643;DHT22;33930;-34.276;150.954;2022-07-17T02:25:52;19.80;81.80
44643;DHT22;33930;-34.276;150.954;2022-07-17T02:28:19;19.80;81.00
44643;DHT22;33930;-34.276;150.954;2022-07-17T02:30:47;19.70;80.60
44643;DHT22;33930;-34.276;150.954;2022-07-17T02:33:14;19.70;81.40
44643;DHT22;33930;-34.276;150.954;2022-07-17T02:35:42;19.70;81.50
44643;DHT22;33930;-34.276;150.954;2022-07-17T02:38:09;19.80;82.10
44643;DHT22;33930;-34.276;150.954;2022-07-17T02:40:37;19.70;78.60
44643;DHT22;33930;-34.276;150.954;2022-07-17T02:43:04;19.70;79.20
44643;DHT22;33930;-34.276;150.954;2022-07-17T02:45:31;19.70;81.00
44643;DHT22;33930;-34.276;150.954;2022-07-17T02:47:59;19.60;79.00
44643;DHT22;33930;-34.276;150.954;2022-07-17T02:50:26;19.70;79.90
44643;DHT22;33930;-34.276;150.954;2022-07-17T02:52:54;19.70;80.20
44643;DHT22;33930;-34.276;150.954;2022-07-17T02:55:21;19.80;81.00
44643;DHT22;33930;-34.276;150.954;2022-07-17T02:57:49;19.70;79.30
44643;DHT22;33930;-34.276;150.954;2022-07-17T03:00:18;19.70;80.20
44643;DHT22;33930;-34.276;150.954;2022-07-17T03:02:46;19.80;80.40
44643;DHT22;33930;-34.276;150.954;2022-07-17T03:05:15;19.70;79.00
44643;DHT22;33930;-34.276;150.954;2022-07-17T03:07:43;19.80;78.60
44643;DHT22;33930;-34.276;150.954;2022-07-17T03:10:11;19.70;78.70
44643;DHT22;33930;-34.276;150.954;2022-07-17T03:12:39;19.70;78.90
44643;DHT22;33930;-34.276;150.954;2022-07-17T03:15:07;19.70;79.70
44643;DHT22;33930;-34.276;150.954;2022-07-17T03:17:35;19.70;78.40
44643;DHT22;33930;-34.276;150.954;2022-07-17T03:20:03;19.70;77.90
44643;DHT22;33930;-34.276;150.954;2022-07-17T03:22:30;19.70;77.50
44643;DHT22;33930;-34.276;150.954;2022-07-17T03:24:58;19.70;77.80
44643;DHT22;33930;-34.276;150.954;2022-07-17T03:27:25;19.70;77.10
44643;DHT22;33930;-34.276;150.954;2022-07-17T03:29:53;19.60;78.20
44643;DHT22;33930;-34.276;150.954;2022-07-17T03:32:21;19.60;78.30
44643;DHT22;33930;-34.276;150.954;2022-07-17T03:34:48;19.70;77.90
44643;DHT22;33930;-34.276;150.954;2022-07-17T03:37:16;19.60;78.80
44643;DHT22;33930;-34.276;150.954;2022-07-17T03:39:43;19.60;78.30
44643;DHT22;33930;-34.276;150.954;2022-07-17T03:42:11;19.70;78.00
44643;DHT22;33930;-34.276;150.954;2022-07-17T03:44:38;19.70;80.10
44643;DHT22;33930;-34.276;150.954;2022-07-17T03:47:05;19.60;80.10
44643;DHT22;33930;-34.276;150.954;2022-07-17T03:49:33;19.70;79.90
44643;DHT22;33930;-34.276;150.954;2022-07-17T03:52:00;19.70;77.00
44643;DHT22;33930;-34.276;150.954;2022-07-17T03:54:27;19.70;77.70
44643;DHT22;33930;-34.276;150.954;2022-07-17T03:56:55;19.70;76.40
44643;DHT22;33930;-34.276;150.954;2022-07-17T03:59:22;19.70;80.10
44643;DHT22;33930;-34.276;150.954;2022-07-17T04:01:50;19.70;79.70
44643;DHT22;33930;-34.276;150.954;2022-07-17T04:04:17;19.60;77.70
44643;DHT22;33930;-34.276;150.954;2022-07-17T04:06:45;19.60;78.90
44643;DHT22;33930;-34.276;150.954;2022-07-17T04:09:12;19.50;78.80
44643;DHT22;33930;-34.276;150.954;2022-07-17T04:11:39;19.60;78.80
44643;DHT22;33930;-34.276;150.954;2022-07-17T04:14:07;19.60;78.70
44643;DHT22;33930;-34.276;150.954;2022-07-17T04:16:34;19.60;76.80
44643;DHT22;33930;-34.276;150.954;2022-07-17T04:19:02;19.60;79.20
44643;DHT22;33930;-34.276;150.954;2022-07-17T04:21:29;19.50;78.60
44643;DHT22;33930;-34.276;150.954;2022-07-17T04:23:57;19.60;78.80
44643;DHT22;33930;-34.276;150.954;2022-07-17T04:26:24;19.50;80.00
44643;DHT22;33930;-34.276;150.954;2022-07-17T04:28:51;19.50;79.60
44643;DHT22;33930;-34.276;150.954;2022-07-17T04:31:19;19.40;83.70
44643;DHT22;33930;-34.276;150.954;2022-07-17T04:33:46;19.30;78.70
44643;DHT22;33930;-34.276;150.954;2022-07-17T04:36:14;19.30;78.70
44643;DHT22;33930;-34.276;150.954;2022-07-17T04:38:41;19.30;79.60
44643;DHT22;33930;-34.276;150.954;2022-07-17T04:41:08;19.30;77.60
44643;DHT22;33930;-34.276;150.954;2022-07-17T04:43:36;19.30;78.30
44643;DHT22;33930;-34.276;150.954;2022-07-17T04:46:03;19.30;78.70
44643;DHT22;33930;-34.276;150.954;2022-07-17T04:48:31;19.20;81.20
44643;DHT22;33930;-34.276;150.954;2022-07-17T04:50:58;19.20;81.30
44643;DHT22;33930;-34.276;150.954;2022-07-17T04:53:25;19.20;79.50
44643;DHT22;33930;-34.276;150.954;2022-07-17T04:55:53;19.30;79.90
44643;DHT22;33930;-34.276;150.954;2022-07-17T04:58:20;19.20;78.10
44643;DHT22;33930;-34.276;150.954;2022-07-17T05:00:48;19.30;79.50
44643;DHT22;33930;-34.276;150.954;2022-07-17T05:03:15;19.20;81.60
44643;DHT22;33930;-34.276;150.954;2022-07-17T05:05:43;19.10;78.30
44643;DHT22;33930;-34.276;150.954;2022-07-17T05:08:10;19.10;77.30
44643;DHT22;33930;-34.276;150.954;2022-07-17T05:10:37;19.10;77.90
44643;DHT22;33930;-34.276;150.954;2022-07-17T05:13:05;19.10;79.50
44643;DHT22;33930;-34.276;150.954;2022-07-17T05:15:32;19.00;81.00
44643;DHT22;33930;-34.276;150.954;2022-07-17T05:17:59;18.90;84.00
44643;DHT22;33930;-34.276;150.954;2022-07-17T05:20:27;18.70;81.90
44643;DHT22;33930;-34.276;150.954;2022-07-17T05:22:54;18.60;87.40
44643;DHT22;33930;-34.276;150.954;2022-07-17T05:25:22;18.40;88.90
44643;DHT22;33930;-34.276;150.954;2022-07-17T05:27:49;18.20;88.60
44643;DHT22;33930;-34.276;150.954;2022-07-17T05:30:17;18.10;84.30
44643;DHT22;33930;-34.276;150.954;2022-07-17T05:32:44;18.00;86.10
44643;DHT22;33930;-34.276;150.954;2022-07-17T05:35:12;17.90;90.80
44643;DHT22;33930;-34.276;150.954;2022-07-17T05:37:39;17.70;91.60
44643;DHT22;33930;-34.276;150.954;2022-07-17T05:40:07;17.50;91.30
44643;DHT22;33930;-34.276;150.954;2022-07-17T05:42:35;17.30;92.10
44643;DHT22;33930;-34.276;150.954;2022-07-17T05:45:03;17.20;90.50
44643;DHT22;33930;-34.276;150.954;2022-07-17T05:47:31;17.00;92.50
44643;DHT22;33930;-34.276;150.954;2022-07-17T05:49:58;16.70;92.90
44643;DHT22;33930;-34.276;150.954;2022-07-17T05:52:26;16.50;93.40
44643;DHT22;33930;-34.276;150.954;2022-07-17T05:54:53;16.30;93.80
44643;DHT22;33930;-34.276;150.954;2022-07-17T05:57:21;16.30;93.30
44643;DHT22;33930;-34.276;150.954;2022-07-17T05:59:48;16.10;94.10
44643;DHT22;33930;-34.276;150.954;2022-07-17T06:02:15;15.90;94.50
44643;DHT22;33930;-34.276;150.954;2022-07-17T06:04:43;15.80;95.30
44643;DHT22;33930;-34.276;150.954;2022-07-17T06:07:10;15.70;95.10
44643;DHT22;33930;-34.276;150.954;2022-07-17T06:09:38;15.60;95.30
44643;DHT22;33930;-34.276;150.954;2022-07-17T06:12:05;15.50;95.20
44643;DHT22;33930;-34.276;150.954;2022-07-17T06:14:32;15.50;95.20
44643;DHT22;33930;-34.276;150.954;2022-07-17T06:17:00;15.30;94.60
44643;DHT22;33930;-34.276;150.954;2022-07-17T06:19:27;15.30;95.50
44643;DHT22;33930;-34.276;150.954;2022-07-17T06:21:55;15.20;95.90
44643;DHT22;33930;-34.276;150.954;2022-07-17T06:24:22;15.10;96.50
44643;DHT22;33930;-34.276;150.954;2022-07-17T06:26:49;15.00;94.90
44643;DHT22;33930;-34.276;150.954;2022-07-17T06:29:17;15.00;94.70
44643;DHT22;33930;-34.276;150.954;2022-07-17T06:31:44;14.90;96.30
44643;DHT22;33930;-34.276;150.954;2022-07-17T06:34:12;14.90;96.70
44643;DHT22;33930;-34.276;150.954;2022-07-17T06:36:39;14.80;96.30
44643;DHT22;33930;-34.276;150.954;2022-07-17T06:39:06;14.80;96.60
44643;DHT22;33930;-34.276;150.954;2022-07-17T06:41:34;14.80;95.90
44643;DHT22;33930;-34.276;150.954;2022-07-17T06:44:01;14.70;92.10
44643;DHT22;33930;-34.276;150.954;2022-07-17T06:46:29;14.70;96.90
44643;DHT22;33930;-34.276;150.954;2022-07-17T06:48:56;14.70;97.00
44643;DHT22;33930;-34.276;150.954;2022-07-17T06:51:23;14.50;97.50
44643;DHT22;33930;-34.276;150.954;2022-07-17T06:53:51;14.50;95.70
44643;DHT22;33930;-34.276;150.954;2022-07-17T06:56:18;14.50;96.50
44643;DHT22;33930;-34.276;150.954;2022-07-17T06:58:45;14.40;97.00
44643;DHT22;33930;-34.276;150.954;2022-07-17T07:01:13;14.40;96.10
44643;DHT22;33930;-34.276;150.954;2022-07-17T07:03:40;14.40;96.00
44643;DHT22;33930;-34.276;150.954;2022-07-17T07:06:08;14.60;91.20
44643;DHT22;33930;-34.276;150.954;2022-07-17T07:08:35;14.80;94.30
44643;DHT22;33930;-34.276;150.954;2022-07-17T07:11:02;14.80;95.00
44643;DHT22;33930;-34.276;150.954;2022-07-17T07:13:30;14.80;95.30
44643;DHT22;33930;-34.276;150.954;2022-07-17T07:15:57;14.80;95.50
44643;DHT22;33930;-34.276;150.954;2022-07-17T07:18:26;14.70;94.50
44643;DHT22;33930;-34.276;150.954;2022-07-17T07:20:53;14.70;95.40
44643;DHT22;33930;-34.276;150.954;2022-07-17T07:23:21;14.60;95.60
44643;DHT22;33930;-34.276;150.954;2022-07-17T07:25:48;14.60;96.20
44643;DHT22;33930;-34.276;150.954;2022-07-17T07:28:16;14.40;95.80
44643;DHT22;33930;-34.276;150.954;2022-07-17T07:30:43;14.40;95.90
44643;DHT22;33930;-34.276;150.954;2022-07-17T07:33:11;14.40;95.10
44643;DHT22;33930;-34.276;150.954;2022-07-17T07:35:38;14.30;96.20
44643;DHT22;33930;-34.276;150.954;2022-07-17T07:38:06;14.50;90.70
44643;DHT22;33930;-34.276;150.954;2022-07-17T07:40:33;14.70;93.10
44643;DHT22;33930;-34.276;150.954;2022-07-17T07:43:01;14.70;94.90
44643;DHT22;33930;-34.276;150.954;2022-07-17T07:45:29;14.70;95.30
44643;DHT22;33930;-34.276;150.954;2022-07-17T07:48:00;14.60;93.70
44643;DHT22;33930;-34.276;150.954;2022-07-17T07:50:27;14.60;90.70
44643;DHT22;33930;-34.276;150.954;2022-07-17T07:52:56;14.90;90.20
44643;DHT22;33930;-34.276;150.954;2022-07-17T07:55:23;15.30;88.90
44643;DHT22;33930;-34.276;150.954;2022-07-17T07:58:06;15.70;88.60
44643;DHT22;33930;-34.276;150.954;2022-07-17T08:00:34;16.00;87.50
44643;DHT22;33930;-34.276;150.954;2022-07-17T08:03:01;16.20;86.40
44643;DHT22;33930;-34.276;150.954;2022-07-17T08:05:29;16.50;85.50
44643;DHT22;33930;-34.276;150.954;2022-07-17T08:07:57;16.60;84.80
44643;DHT22;33930;-34.276;150.954;2022-07-17T08:10:24;16.70;86.90
44643;DHT22;33930;-34.276;150.954;2022-07-17T08:12:51;16.80;85.40
44643;DHT22;33930;-34.276;150.954;2022-07-17T08:15:20;16.70;88.00
44643;DHT22;33930;-34.276;150.954;2022-07-17T08:17:49;16.50;90.30
44643;DHT22;33930;-34.276;150.954;2022-07-17T08:20:18;16.30;90.90
44643;DHT22;33930;-34.276;150.954;2022-07-17T08:22:46;16.10;92.10
44643;DHT22;33930;-34.276;150.954;2022-07-17T08:25:14;15.80;92.40
44643;DHT22;33930;-34.276;150.954;2022-07-17T08:27:43;15.60;93.10
44643;DHT22;33930;-34.276;150.954;2022-07-17T08:30:13;15.40;93.40
44643;DHT22;33930;-34.276;150.954;2022-07-17T08:32:41;15.20;93.70
44643;DHT22;33930;-34.276;150.954;2022-07-17T08:35:09;14.90;94.30
44643;DHT22;33930;-34.276;150.954;2022-07-17T08:37:52;14.70;95.30
44643;DHT22;33930;-34.276;150.954;2022-07-17T08:40:25;14.50;95.90
44643;DHT22;33930;-34.276;150.954;2022-07-17T08:42:54;14.30;93.50
44643;DHT22;33930;-34.276;150.954;2022-07-17T08:45:22;14.30;92.60
44643;DHT22;33930;-34.276;150.954;2022-07-17T08:47:51;14.40;92.40
44643;DHT22;33930;-34.276;150.954;2022-07-17T08:50:31;14.40;94.30
44643;DHT22;33930;-34.276;150.954;2022-07-17T08:52:59;14.50;94.60
44643;DHT22;33930;-34.276;150.954;2022-07-17T08:55:27;14.40;95.20
44643;DHT22;33930;-34.276;150.954;2022-07-17T08:57:55;14.30;95.30
44643;DHT22;33930;-34.276;150.954;2022-07-17T09:00:25;14.20;96.30
44643;DHT22;33930;-34.276;150.954;2022-07-17T09:03:01;14.10;95.30
44643;DHT22;33930;-34.276;150.954;2022-07-17T09:05:46;14.00;95.90
44643;DHT22;33930;-34.276;150.954;2022-07-17T09:08:21;14.00;96.40
44643;DHT22;33930;-34.276;150.954;2022-07-17T09:10:51;13.80;96.70
44643;DHT22;33930;-34.276;150.954;2022-07-17T09:15:48;13.70;97.40
44643;DHT22;33930;-34.276;150.954;2022-07-17T09:18:16;13.60;97.50
44643;DHT22;33930;-34.276;150.954;2022-07-17T09:20:52;13.40;97.70
44643;DHT22;33930;-34.276;150.954;2022-07-17T09:23:21;13.30;97.00
44643;DHT22;33930;-34.276;150.954;2022-07-17T09:25:51;13.30;95.60
44643;DHT22;33930;-34.276;150.954;2022-07-17T09:28:18;13.30;96.50
44643;DHT22;33930;-34.276;150.954;2022-07-17T09:30:50;13.40;96.60
44643;DHT22;33930;-34.276;150.954;2022-07-17T09:33:20;13.40;95.40
44643;DHT22;33930;-34.276;150.954;2022-07-17T09:36:08;13.50;96.20
44643;DHT22;33930;-34.276;150.954;2022-07-17T09:38:42;13.50;96.10
44643;DHT22;33930;-34.276;150.954;2022-07-17T09:41:11;13.50;96.60
44643;DHT22;33930;-34.276;150.954;2022-07-17T09:43:48;13.40;97.10
44643;DHT22;33930;-34.276;150.954;2022-07-17T09:46:28;13.30;97.40
44643;DHT22;33930;-34.276;150.954;2022-07-17T09:48:58;13.30;97.50
44643;DHT22;33930;-34.276;150.954;2022-07-17T09:51:31;13.20;97.30
44643;DHT22;33930;-34.276;150.954;2022-07-17T09:54:01;13.20;98.10
44643;DHT22;33930;-34.276;150.954;2022-07-17T09:56:33;13.00;98.50
44643;DHT22;33930;-34.276;150.954;2022-07-17T09:59:03;13.00;98.80
44643;DHT22;33930;-34.276;150.954;2022-07-17T10:01:32;13.00;98.90
44643;DHT22;33930;-34.276;150.954;2022-07-17T10:04:00;12.90;99.10
44643;DHT22;33930;-34.276;150.954;2022-07-17T10:06:28;12.80;98.80
44643;DHT22;33930;-34.276;150.954;2022-07-17T10:08:55;12.80;99.10
44643;DHT22;33930;-34.276;150.954;2022-07-17T10:11:26;12.80;98.90
44643;DHT22;33930;-34.276;150.954;2022-07-17T10:13:56;12.70;99.30
44643;DHT22;33930;-34.276;150.954;2022-07-17T10:16:30;12.60;99.40
44643;DHT22;33930;-34.276;150.954;2022-07-17T10:18:59;12.60;99.30
44643;DHT22;33930;-34.276;150.954;2022-07-17T10:21:29;12.60;99.30
44643;DHT22;33930;-34.276;150.954;2022-07-17T10:26:54;12.50;99.10
44643;DHT22;33930;-34.276;150.954;2022-07-17T10:29:38;12.50;99.20
44643;DHT22;33930;-34.276;150.954;2022-07-17T10:32:13;12.60;96.50
44643;DHT22;33930;-34.276;150.954;2022-07-17T10:34:45;12.60;97.20
44643;DHT22;33930;-34.276;150.954;2022-07-17T10:37:23;12.80;96.40
44643;DHT22;33930;-34.276;150.954;2022-07-17T10:42:43;12.90;96.50
44643;DHT22;33930;-34.276;150.954;2022-07-17T10:47:54;13.00;96.90
44643;DHT22;33930;-34.276;150.954;2022-07-17T10:50:28;13.00;96.70
44643;DHT22;33930;-34.276;150.954;2022-07-17T10:53:05;13.10;96.20
44643;DHT22;33930;-34.276;150.954;2022-07-17T10:55:39;13.20;96.10
44643;DHT22;33930;-34.276;150.954;2022-07-17T11:04:02;13.20;95.80
44643;DHT22;33930;-34.276;150.954;2022-07-17T11:06:36;13.20;95.80
44643;DHT22;33930;-34.276;150.954;2022-07-17T11:09:11;13.20;96.20
44643;DHT22;33930;-34.276;150.954;2022-07-17T11:11:43;13.30;95.60
44643;DHT22;33930;-34.276;150.954;2022-07-17T11:14:22;13.40;94.90
44643;DHT22;33930;-34.276;150.954;2022-07-17T11:16:55;13.50;94.80
44643;DHT22;33930;-34.276;150.954;2022-07-17T11:21:59;13.70;94.90
44643;DHT22;33930;-34.276;150.954;2022-07-17T11:24:47;13.90;94.40
44643;DHT22;33930;-34.276;150.954;2022-07-17T11:27:24;13.90;94.50
44643;DHT22;33930;-34.276;150.954;2022-07-17T11:29:54;13.80;94.70
44643;DHT22;33930;-34.276;150.954;2022-07-17T11:32:22;13.80;95.40
44643;DHT22;33930;-34.276;150.954;2022-07-17T11:34:51;13.80;95.60
44643;DHT22;33930;-34.276;150.954;2022-07-17T11:37:20;13.80;95.30
44643;DHT22;33930;-34.276;150.954;2022-07-17T11:39:49;13.80;95.00
44643;DHT22;33930;-34.276;150.954;2022-07-17T11:42:21;13.90;95.00
44643;DHT22;33930;-34.276;150.954;2022-07-17T11:44:54;13.90;94.90
44643;DHT22;33930;-34.276;150.954;2022-07-17T11:47:27;13.90;94.80
44643;DHT22;33930;-34.276;150.954;2022-07-17T11:50:09;14.00;94.50
44643;DHT22;33930;-34.276;150.954;2022-07-17T11:52:46;14.00;94.60
44643;DHT22;33930;-34.276;150.954;2022-07-17T11:55:15;14.00;95.10
44643;DHT22;33930;-34.276;150.954;2022-07-17T11:57:45;14.00;94.90
44643;DHT22;33930;-34.276;150.954;2022-07-17T12:00:15;13.90;95.10
44643;DHT22;33930;-34.276;150.954;2022-07-17T12:02:43;13.80;95.10
44643;DHT22;33930;-34.276;150.954;2022-07-17T12:05:11;13.80;95.30
44643;DHT22;33930;-34.276;150.954;2022-07-17T12:07:48;13.70;95.70
44643;DHT22;33930;-34.276;150.954;2022-07-17T12:10:18;13.60;96.30
44643;DHT22;33930;-34.276;150.954;2022-07-17T12:13:00;13.60;96.30
44643;DHT22;33930;-34.276;150.954;2022-07-17T12:18:19;13.50;96.70
44643;DHT22;33930;-34.276;150.954;2022-07-17T12:20:48;13.40;97.70
44643;DHT22;33930;-34.276;150.954;2022-07-17T12:23:38;13.30;98.20
44643;DHT22;33930;-34.276;150.954;2022-07-17T12:26:10;13.10;98.60
44643;DHT22;33930;-34.276;150.954;2022-07-17T12:28:39;13.00;98.70
44643;DHT22;33930;-34.276;150.954;2022-07-17T12:31:08;12.90;99.60
44643;DHT22;33930;-34.276;150.954;2022-07-17T12:33:35;12.80;99.30
44643;DHT22;33930;-34.276;150.954;2022-07-17T12:36:03;12.70;99.90
44643;DHT22;33930;-34.276;150.954;2022-07-17T12:38:30;12.60;99.90
44643;DHT22;33930;-34.276;150.954;2022-07-17T12:40:58;12.40;99.90
44643;DHT22;33930;-34.276;150.954;2022-07-17T12:43:25;12.30;99.00
44643;DHT22;33930;-34.276;150.954;2022-07-17T12:45:53;12.30;99.80
44643;DHT22;33930;-34.276;150.954;2022-07-17T12:48:21;12.30;99.50
44643;DHT22;33930;-34.276;150.954;2022-07-17T12:50:48;12.30;99.90
44643;DHT22;33930;-34.276;150.954;2022-07-17T12:53:15;12.30;99.90
44643;DHT22;33930;-34.276;150.954;2022-07-17T12:55:43;12.20;99.90
44643;DHT22;33930;-34.276;150.954;2022-07-17T12:58:10;12.20;99.30
44643;DHT22;33930;-34.276;150.954;2022-07-17T13:00:38;12.20;99.70
44643;DHT22;33930;-34.276;150.954;2022-07-17T13:03:05;12.20;99.90
44643;DHT22;33930;-34.276;150.954;2022-07-17T13:05:32;12.20;99.90
44643;DHT22;33930;-34.276;150.954;2022-07-17T13:08:00;12.20;99.90
44643;DHT22;33930;-34.276;150.954;2022-07-17T13:10:27;12.20;99.50
44643;DHT22;33930;-34.276;150.954;2022-07-17T13:12:55;12.20;99.90
44643;DHT22;33930;-34.276;150.954;2022-07-17T13:15:22;12.20;99.00
44643;DHT22;33930;-34.276;150.954;2022-07-17T13:17:49;12.30;99.20
44643;DHT22;33930;-34.276;150.954;2022-07-17T13:20:17;12.30;99.40
44643;DHT22;33930;-34.276;150.954;2022-07-17T13:22:44;12.40;99.70
44643;DHT22;33930;-34.276;150.954;2022-07-17T13:25:12;12.30;99.30
44643;DHT22;33930;-34.276;150.954;2022-07-17T13:27:39;12.40;98.00
44643;DHT22;33930;-34.276;150.954;2022-07-17T13:30:07;12.40;98.40
44643;DHT22;33930;-34.276;150.954;2022-07-17T13:32:34;12.50;99.40
44643;DHT22;33930;-34.276;150.954;2022-07-17T13:35:02;12.60;98.80
44643;DHT22;33930;-34.276;150.954;2022-07-17T13:37:30;12.60;98.30
44643;DHT22;33930;-34.276;150.954;2022-07-17T13:39:57;12.70;99.30
44643;DHT22;33930;-34.276;150.954;2022-07-17T13:42:24;12.70;99.70
44643;DHT22;33930;-34.276;150.954;2022-07-17T13:44:52;12.70;99.90
44643;DHT22;33930;-34.276;150.954;2022-07-17T13:47:19;12.60;99.90
44643;DHT22;33930;-34.276;150.954;2022-07-17T13:49:46;12.50;99.90
44643;DHT22;33930;-34.276;150.954;2022-07-17T13:52:14;12.40;99.90
44643;DHT22;33930;-34.276;150.954;2022-07-17T13:54:41;12.30;99.90
44643;DHT22;33930;-34.276;150.954;2022-07-17T13:57:09;12.20;99.90
44643;DHT22;33930;-34.276;150.954;2022-07-17T13:59:36;12.10;99.90
44643;DHT22;33930;-34.276;150.954;2022-07-17T14:02:04;12.10;99.90
44643;DHT22;33930;-34.276;150.954;2022-07-17T14:04:33;12.00;99.90
44643;DHT22;33930;-34.276;150.954;2022-07-17T14:07:00;11.80;99.90
44643;DHT22;33930;-34.276;150.954;2022-07-17T14:09:28;11.70;99.90
44643;DHT22;33930;-34.276;150.954;2022-07-17T14:11:55;11.60;99.90
44643;DHT22;33930;-34.276;150.954;2022-07-17T14:14:23;11.60;99.90
44643;DHT22;33930;-34.276;150.954;2022-07-17T14:16:50;11.60;99.90
44643;DHT22;33930;-34.276;150.954;2022-07-17T14:19:18;11.60;99.90
44643;DHT22;33930;-34.276;150.954;2022-07-17T14:21:45;11.60;99.90
44643;DHT22;33930;-34.276;150.954;2022-07-17T14:24:13;11.50;99.90
44643;DHT22;33930;-34.276;150.954;2022-07-17T14:26:40;11.50;99.90
44643;DHT22;33930;-34.276;150.954;2022-07-17T14:29:13;11.50;99.90
44643;DHT22;33930;-34.276;150.954;2022-07-17T14:31:40;11.40;99.90
44643;DHT22;33930;-34.276;150.954;2022-07-17T14:34:08;11.40;99.90
44643;DHT22;33930;-34.276;150.954;2022-07-17T14:36:35;11.40;99.90
44643;DHT22;33930;-34.276;150.954;2022-07-17T14:39:03;11.40;99.90
44643;DHT22;33930;-34.276;150.954;2022-07-17T14:41:30;11.30;99.90
44643;DHT22;33930;-34.276;150.954;2022-07-17T14:43:58;11.40;99.90
44643;DHT22;33930;-34.276;150.954;2022-07-17T14:46:25;11.50;99.90
44643;DHT22;33930;-34.276;150.954;2022-07-17T14:48:53;11.50;99.90
44643;DHT22;33930;-34.276;150.954;2022-07-17T14:51:20;11.50;99.90
44643;DHT22;33930;-34.276;150.954;2022-07-17T14:53:47;11.60;99.90
44643;DHT22;33930;-34.276;150.954;2022-07-17T14:56:15;11.60;99.90
44643;DHT22;33930;-34.276;150.954;2022-07-17T14:58:42;11.60;99.90
44643;DHT22;33930;-34.276;150.954;2022-07-17T15:01:10;11.60;99.90
44643;DHT22;33930;-34.276;150.954;2022-07-17T15:03:37;11.60;99.90
44643;DHT22;33930;-34.276;150.954;2022-07-17T15:06:05;11.50;99.90
44643;DHT22;33930;-34.276;150.954;2022-07-17T15:08:32;11.50;99.90
44643;DHT22;33930;-34.276;150.954;2022-07-17T15:11:00;11.50;99.90
44643;DHT22;33930;-34.276;150.954;2022-07-17T15:13:27;11.50;99.90
44643;DHT22;33930;-34.276;150.954;2022-07-17T15:15:55;11.40;99.90
44643;DHT22;33930;-34.276;150.954;2022-07-17T15:18:22;11.40;99.90